sensor_id;sensor_type;location;lat;lon;timestamp;temperature;humidity
25328;DHT22;13279;51.300;12.394;2023-07-13T00:01:17;22.40;91.60
25328;DHT22;13279;51.300;12.394;2023-07-13T00:03:45;22.30;93.20
25328;DHT22;13279;51.300;12.394;2023-07-13T00:06:12;22.30;97.50
25328;DHT22;13279;51.300;12.394;2023-07-13T00:08:40;22.20;99.90
25328;DHT22;13279;51.300;12.394;2023-07-13T00:11:07;22.10;99.90
25328;DHT22;13279;51.300;12.394;2023-07-13T00:13:38;21.90;99.90
25328;DHT22;13279;51.300;12.394;2023-07-13T00:16:06;21.80;99.90
25328;DHT22;13279;51.300;12.394;2023-07-13T00:18:34;21.80;99.90
25328;DHT22;13279;51.300;12.394;2023-07-13T00:21:01;21.70;99.90
25328;DHT22;13279;51.300;12.394;2023-07-13T00:23:32;21.70;99.90
25328;DHT22;13279;51.300;12.394;2023-07-13T00:26:00;21.60;99.90
25328;DHT22;13279;51.300;12.394;2023-07-13T00:28:28;21.70;99.90
25328;DHT22;13279;51.300;12.394;2023-07-13T00:30:57;21.60;99.90
25328;DHT22;13279;51.300;12.394;2023-07-13T00:33:25;21.50;99.90
25328;DHT22;13279;51.300;12.394;2023-07-13T00:35:54;21.40;99.90
25328;DHT22;13279;51.300;12.394;2023-07-13T00:38:22;21.40;99.90
25328;DHT22;13279;51.300;12.394;2023-07-13T00:40:50;21.40;99.90
25328;DHT22;13279;51.300;12.394;2023-07-13T00:43:18;21.40;99.90
25328;DHT22;13279;51.300;12.394;2023-07-13T00:46:12;21.40;99.90
25328;DHT22;13279;51.300;12.394;2023-07-13T00:48:42;21.50;99.90
25328;DHT22;13279;51.300;12.394;2023-07-13T00:51:11;21.50;99.90
25328;DHT22;13279;51.300;12.394;2023-07-13T00:53:40;21.50;99.90
25328;DHT22;13279;51.300;12.394;2023-07-13T00:56:09;21.50;99.90
25328;DHT22;13279;51.300;12.394;2023-07-13T00:58:36;21.50;99.90
25328;DHT22;13279;51.300;12.394;2023-07-13T01:01:04;21.40;99.90
25328;DHT22;13279;51.300;12.394;2023-07-13T01:03:34;21.40;99.90
25328;DHT22;13279;51.300;12.394;2023-07-13T01:06:02;21.30;99.90
25328;DHT22;13279;51.300;12.394;2023-07-13T01:08:29;21.30;99.90
25328;DHT22;13279;51.300;12.394;2023-07-13T01:11:00;21.30;99.90
25328;DHT22;13279;51.300;12.394;2023-07-13T01:13:27;21.40;99.90
25328;DHT22;13279;51.300;12.394;2023-07-13T01:15:58;21.30;99.90
25328;DHT22;13279;51.300;12.394;2023-07-13T01:18:28;21.30;99.90
25328;DHT22;13279;51.300;12.394;2023-07-13T01:20:59;21.30;99.90
25328;DHT22;13279;51.300;12.394;2023-07-13T01:23:29;21.30;99.90
25328;DHT22;13279;51.300;12.394;2023-07-13T01:25:58;21.30;99.90
25328;DHT22;13279;51.300;12.394;2023-07-13T01:28:26;21.30;99.90
25328;DHT22;13279;51.300;12.394;2023-07-13T01:30:55;21.20;99.90
25328;DHT22;13279;51.300;12.394;2023-07-13T01:33:24;21.20;99.90
25328;DHT22;13279;51.300;12.394;2023-07-13T01:35:51;21.10;99.90
25328;DHT22;13279;51.300;12.394;2023-07-13T01:38:22;21.10;99.90
25328;DHT22;13279;51.300;12.394;2023-07-13T01:40:50;21.00;99.90
25328;DHT22;13279;51.300;12.394;2023-07-13T01:43:17;21.00;99.90
25328;DHT22;13279;51.300;12.394;2023-07-13T01:45:45;21.00;99.90
25328;DHT22;13279;51.300;12.394;2023-07-13T01:48:13;20.90;99.90
25328;DHT22;13279;51.300;12.394;2023-07-13T01:50:41;20.90;99.90
25328;DHT22;13279;51.300;12.394;2023-07-13T01:53:08;20.80;99.90
25328;DHT22;13279;51.300;12.394;2023-07-13T01:55:38;20.80;99.90
25328;DHT22;13279;51.300;12.394;2023-07-13T01:58:06;20.70;99.90
25328;DHT22;13279;51.300;12.394;2023-07-13T02:00:33;20.70;99.90
25328;DHT22;13279;51.300;12.394;2023-07-13T02:03:01;20.70;99.90
25328;DHT22;13279;51.300;12.394;2023-07-13T02:05:31;20.70;99.90
25328;DHT22;13279;51.300;12.394;2023-07-13T02:07:58;20.60;99.90
25328;DHT22;13279;51.300;12.394;2023-07-13T02:10:26;20.60;99.90
25328;DHT22;13279;51.300;12.394;2023-07-13T02:12:55;20.50;99.90
25328;DHT22;13279;51.300;12.394;2023-07-13T02:15:22;20.50;99.90
25328;DHT22;13279;51.300;12.394;2023-07-13T02:17:50;20.50;99.90
25328;DHT22;13279;51.300;12.394;2023-07-13T02:20:17;20.40;99.90
25328;DHT22;13279;51.300;12.394;2023-07-13T02:22:44;20.40;99.90
25328;DHT22;13279;51.300;12.394;2023-07-13T02:25:12;20.30;99.90
25328;DHT22;13279;51.300;12.394;2023-07-13T02:27:40;20.40;99.90
25328;DHT22;13279;51.300;12.394;2023-07-13T02:30:11;20.40;99.90
25328;DHT22;13279;51.300;12.394;2023-07-13T02:32:38;20.30;99.90
25328;DHT22;13279;51.300;12.394;2023-07-13T02:35:06;20.30;99.90
25328;DHT22;13279;51.300;12.394;2023-07-13T02:37:35;20.20;99.90
25328;DHT22;13279;51.300;12.394;2023-07-13T02:40:03;20.20;99.90
25328;DHT22;13279;51.300;12.394;2023-07-13T02:42:35;20.10;99.90
25328;DHT22;13279;51.300;12.394;2023-07-13T02:45:03;20.10;99.90
25328;DHT22;13279;51.300;12.394;2023-07-13T02:47:33;20.10;99.90
25328;DHT22;13279;51.300;12.394;2023-07-13T02:50:01;20.00;99.90
25328;DHT22;13279;51.300;12.394;2023-07-13T02:52:28;19.90;99.90
25328;DHT22;13279;51.300;12.394;2023-07-13T02:54:56;19.80;99.90
25328;DHT22;13279;51.300;12.394;2023-07-13T02:57:23;19.80;99.90
25328;DHT22;13279;51.300;12.394;2023-07-13T02:59:51;19.60;99.90
25328;DHT22;13279;51.300;12.394;2023-07-13T03:02:19;19.60;99.90
25328;DHT22;13279;51.300;12.394;2023-07-13T03:04:48;19.60;99.90
25328;DHT22;13279;51.300;12.394;2023-07-13T03:07:15;19.60;99.90
25328;DHT22;13279;51.300;12.394;2023-07-13T03:09:46;19.50;99.90
25328;DHT22;13279;51.300;12.394;2023-07-13T03:12:14;19.50;99.90
25328;DHT22;13279;51.300;12.394;2023-07-13T03:14:41;19.40;99.90
25328;DHT22;13279;51.300;12.394;2023-07-13T03:17:09;19.40;99.90
25328;DHT22;13279;51.300;12.394;2023-07-13T03:19:40;19.30;99.90
25328;DHT22;13279;51.300;12.394;2023-07-13T03:22:09;19.30;99.90
25328;DHT22;13279;51.300;12.394;2023-07-13T03:24:38;19.30;99.90
25328;DHT22;13279;51.300;12.394;2023-07-13T03:27:07;19.30;99.90
25328;DHT22;13279;51.300;12.394;2023-07-13T03:29:37;19.30;99.90
25328;DHT22;13279;51.300;12.394;2023-07-13T03:32:06;19.30;99.90
25328;DHT22;13279;51.300;12.394;2023-07-13T03:34:33;19.30;99.90
25328;DHT22;13279;51.300;12.394;2023-07-13T03:37:02;19.30;99.90
25328;DHT22;13279;51.300;12.394;2023-07-13T03:39:31;19.30;99.90
25328;DHT22;13279;51.300;12.394;2023-07-13T03:41:59;19.30;99.90
25328;DHT22;13279;51.300;12.394;2023-07-13T03:44:27;19.30;99.90
25328;DHT22;13279;51.300;12.394;2023-07-13T03:46:57;19.30;99.90
25328;DHT22;13279;51.300;12.394;2023-07-13T03:49:24;19.20;99.90
25328;DHT22;13279;51.300;12.394;2023-07-13T03:51:53;19.10;99.90
25328;DHT22;13279;51.300;12.394;2023-07-13T03:54:20;19.10;99.90
25328;DHT22;13279;51.300;12.394;2023-07-13T03:56:49;19.00;99.90
25328;DHT22;13279;51.300;12.394;2023-07-13T03:59:18;19.00;99.90
25328;DHT22;13279;51.300;12.394;2023-07-13T04:01:46;19.00;99.90
25328;DHT22;13279;51.300;12.394;2023-07-13T04:04:13;19.00;99.90
25328;DHT22;13279;51.300;12.394;2023-07-13T04:06:41;19.00;99.90
25328;DHT22;13279;51.300;12.394;2023-07-13T04:09:11;19.00;99.90
25328;DHT22;13279;51.300;12.394;2023-07-13T04:11:39;19.00;99.90
25328;DHT22;13279;51.300;12.394;2023-07-13T04:14:07;18.90;99.90
25328;DHT22;13279;51.300;12.394;2023-07-13T04:16:35;18.90;99.90
25328;DHT22;13279;51.300;12.394;2023-07-13T04:19:02;18.80;99.90
25328;DHT22;13279;51.300;12.394;2023-07-13T04:21:31;18.80;99.90
25328;DHT22;13279;51.300;12.394;2023-07-13T04:23:58;18.80;99.90
25328;DHT22;13279;51.300;12.394;2023-07-13T04:26:26;18.80;99.90
25328;DHT22;13279;51.300;12.394;2023-07-13T04:28:53;18.80;99.90
25328;DHT22;13279;51.300;12.394;2023-07-13T04:31:22;18.80;99.90
25328;DHT22;13279;51.300;12.394;2023-07-13T04:33:50;18.80;99.90
25328;DHT22;13279;51.300;12.394;2023-07-13T04:36:18;18.80;99.90
25328;DHT22;13279;51.300;12.394;2023-07-13T04:38:45;18.80;99.90
25328;DHT22;13279;51.300;12.394;2023-07-13T04:41:14;18.90;99.90
25328;DHT22;13279;51.300;12.394;2023-07-13T04:43:41;18.90;99.90
25328;DHT22;13279;51.300;12.394;2023-07-13T04:46:11;19.00;99.90
25328;DHT22;13279;51.300;12.394;2023-07-13T04:48:40;19.00;99.90
25328;DHT22;13279;51.300;12.394;2023-07-13T04:51:07;19.20;99.90
25328;DHT22;13279;51.300;12.394;2023-07-13T04:53:35;19.30;99.90
25328;DHT22;13279;51.300;12.394;2023-07-13T04:56:03;19.30;99.90
25328;DHT22;13279;51.300;12.394;2023-07-13T04:58:31;19.40;99.90
25328;DHT22;13279;51.300;12.394;2023-07-13T05:01:01;19.50;99.90
25328;DHT22;13279;51.300;12.394;2023-07-13T05:03:28;19.60;99.90
25328;DHT22;13279;51.300;12.394;2023-07-13T05:05:59;19.70;99.90
25328;DHT22;13279;51.300;12.394;2023-07-13T05:08:27;19.70;99.90
25328;DHT22;13279;51.300;12.394;2023-07-13T05:10:54;19.80;99.90
25328;DHT22;13279;51.300;12.394;2023-07-13T05:13:22;19.80;99.90
25328;DHT22;13279;51.300;12.394;2023-07-13T05:15:56;19.90;99.90
25328;DHT22;13279;51.300;12.394;2023-07-13T05:18:24;20.00;99.90
25328;DHT22;13279;51.300;12.394;2023-07-13T05:21:00;20.10;99.90
25328;DHT22;13279;51.300;12.394;2023-07-13T05:23:29;20.00;99.90
25328;DHT22;13279;51.300;12.394;2023-07-13T05:25:56;20.10;99.90
25328;DHT22;13279;51.300;12.394;2023-07-13T05:28:23;20.20;99.90
25328;DHT22;13279;51.300;12.394;2023-07-13T05:30:51;20.30;99.90
25328;DHT22;13279;51.300;12.394;2023-07-13T05:33:20;20.40;99.90
25328;DHT22;13279;51.300;12.394;2023-07-13T05:35:47;20.40;99.90
25328;DHT22;13279;51.300;12.394;2023-07-13T05:38:16;20.50;99.90
25328;DHT22;13279;51.300;12.394;2023-07-13T05:40:44;20.70;99.90
25328;DHT22;13279;51.300;12.394;2023-07-13T05:43:13;20.70;99.90
25328;DHT22;13279;51.300;12.394;2023-07-13T05:45:40;20.80;99.90
25328;DHT22;13279;51.300;12.394;2023-07-13T05:48:08;20.90;99.90
25328;DHT22;13279;51.300;12.394;2023-07-13T05:50:35;21.00;99.90
25328;DHT22;13279;51.300;12.394;2023-07-13T05:53:03;21.20;99.90
25328;DHT22;13279;51.300;12.394;2023-07-13T05:55:32;21.40;99.90
25328;DHT22;13279;51.300;12.394;2023-07-13T05:58:01;21.60;99.90
25328;DHT22;13279;51.300;12.394;2023-07-13T06:00:28;21.80;99.90
25328;DHT22;13279;51.300;12.394;2023-07-13T06:02:56;21.90;99.90
25328;DHT22;13279;51.300;12.394;2023-07-13T06:05:24;22.00;99.90
25328;DHT22;13279;51.300;12.394;2023-07-13T06:07:51;22.20;99.90
25328;DHT22;13279;51.300;12.394;2023-07-13T06:10:18;22.20;99.90
25328;DHT22;13279;51.300;12.394;2023-07-13T06:12:48;22.20;99.90
25328;DHT22;13279;51.300;12.394;2023-07-13T06:15:15;22.20;99.90
25328;DHT22;13279;51.300;12.394;2023-07-13T06:17:43;22.20;99.90
25328;DHT22;13279;51.300;12.394;2023-07-13T06:20:10;22.20;99.90
25328;DHT22;13279;51.300;12.394;2023-07-13T06:22:38;22.20;99.90
25328;DHT22;13279;51.300;12.394;2023-07-13T06:25:06;22.20;99.90
25328;DHT22;13279;51.300;12.394;2023-07-13T06:27:34;22.30;99.90
25328;DHT22;13279;51.300;12.394;2023-07-13T06:30:03;22.40;99.90
25328;DHT22;13279;51.300;12.394;2023-07-13T06:32:31;22.60;99.90
25328;DHT22;13279;51.300;12.394;2023-07-13T06:34:58;22.60;99.90
25328;DHT22;13279;51.300;12.394;2023-07-13T06:37:25;22.70;99.90
25328;DHT22;13279;51.300;12.394;2023-07-13T06:39:53;22.80;99.90
25328;DHT22;13279;51.300;12.394;2023-07-13T06:42:20;22.80;99.90
25328;DHT22;13279;51.300;12.394;2023-07-13T06:44:47;22.90;99.90
25328;DHT22;13279;51.300;12.394;2023-07-13T06:47:16;22.80;99.90
25328;DHT22;13279;51.300;12.394;2023-07-13T06:49:43;22.90;99.90
25328;DHT22;13279;51.300;12.394;2023-07-13T06:52:11;22.80;99.90
25328;DHT22;13279;51.300;12.394;2023-07-13T06:54:38;22.70;99.90
25328;DHT22;13279;51.300;12.394;2023-07-13T06:57:06;22.80;99.90
25328;DHT22;13279;51.300;12.394;2023-07-13T06:59:33;22.80;99.90
25328;DHT22;13279;51.300;12.394;2023-07-13T07:02:01;22.90;99.90
25328;DHT22;13279;51.300;12.394;2023-07-13T07:04:29;23.10;99.90
25328;DHT22;13279;51.300;12.394;2023-07-13T07:06:57;23.30;99.90
25328;DHT22;13279;51.300;12.394;2023-07-13T07:09:25;23.50;99.90
25328;DHT22;13279;51.300;12.394;2023-07-13T07:11:52;23.70;99.90
25328;DHT22;13279;51.300;12.394;2023-07-13T07:14:20;23.70;99.90
25328;DHT22;13279;51.300;12.394;2023-07-13T07:16:47;23.70;99.90
25328;DHT22;13279;51.300;12.394;2023-07-13T07:19:14;23.90;99.90
25328;DHT22;13279;51.300;12.394;2023-07-13T07:21:43;24.10;99.90
25328;DHT22;13279;51.300;12.394;2023-07-13T07:24:10;24.20;99.90
25328;DHT22;13279;51.300;12.394;2023-07-13T07:26:38;24.20;99.90
25328;DHT22;13279;51.300;12.394;2023-07-13T07:29:05;24.40;99.90
25328;DHT22;13279;51.300;12.394;2023-07-13T07:31:33;24.40;99.90
25328;DHT22;13279;51.300;12.394;2023-07-13T07:34:00;24.40;99.90
25328;DHT22;13279;51.300;12.394;2023-07-13T07:36:28;24.50;99.90
25328;DHT22;13279;51.300;12.394;2023-07-13T07:38:56;24.60;99.90
25328;DHT22;13279;51.300;12.394;2023-07-13T07:41:24;24.40;99.90
25328;DHT22;13279;51.300;12.394;2023-07-13T07:43:51;24.30;99.90
25328;DHT22;13279;51.300;12.394;2023-07-13T07:46:19;24.40;99.90
25328;DHT22;13279;51.300;12.394;2023-07-13T07:48:46;24.40;99.90
25328;DHT22;13279;51.300;12.394;2023-07-13T07:51:13;24.30;99.90
25328;DHT22;13279;51.300;12.394;2023-07-13T07:53:41;24.30;99.90
25328;DHT22;13279;51.300;12.394;2023-07-13T07:56:10;24.50;99.90
25328;DHT22;13279;51.300;12.394;2023-07-13T07:58:37;24.90;99.90
25328;DHT22;13279;51.300;12.394;2023-07-13T08:01:06;25.10;99.90
25328;DHT22;13279;51.300;12.394;2023-07-13T08:03:33;25.20;99.90
25328;DHT22;13279;51.300;12.394;2023-07-13T08:06:02;25.00;99.90
25328;DHT22;13279;51.300;12.394;2023-07-13T08:08:29;24.90;99.90
25328;DHT22;13279;51.300;12.394;2023-07-13T08:10:56;24.90;99.90
25328;DHT22;13279;51.300;12.394;2023-07-13T08:13:25;24.60;99.90
25328;DHT22;13279;51.300;12.394;2023-07-13T08:15:53;24.40;99.90
25328;DHT22;13279;51.300;12.394;2023-07-13T08:18:20;24.40;99.90
25328;DHT22;13279;51.300;12.394;2023-07-13T08:20:48;24.60;99.90
25328;DHT22;13279;51.300;12.394;2023-07-13T08:23:15;24.80;99.90
25328;DHT22;13279;51.300;12.394;2023-07-13T08:25:50;25.00;99.90
25328;DHT22;13279;51.300;12.394;2023-07-13T08:28:19;25.10;99.90
25328;DHT22;13279;51.300;12.394;2023-07-13T08:30:48;24.70;99.90
25328;DHT22;13279;51.300;12.394;2023-07-13T08:33:15;24.60;99.90
25328;DHT22;13279;51.300;12.394;2023-07-13T08:35:45;24.50;99.90
25328;DHT22;13279;51.300;12.394;2023-07-13T08:38:14;24.50;99.90
25328;DHT22;13279;51.300;12.394;2023-07-13T08:40:41;24.50;99.90
25328;DHT22;13279;51.300;12.394;2023-07-13T08:43:16;24.80;99.90
25328;DHT22;13279;51.300;12.394;2023-07-13T08:45:49;24.80;99.90
25328;DHT22;13279;51.300;12.394;2023-07-13T08:48:32;25.00;99.90
25328;DHT22;13279;51.300;12.394;2023-07-13T08:51:09;25.10;99.90
25328;DHT22;13279;51.300;12.394;2023-07-13T08:53:39;25.20;99.90
25328;DHT22;13279;51.300;12.394;2023-07-13T08:56:11;25.50;99.90
25328;DHT22;13279;51.300;12.394;2023-07-13T08:58:41;25.50;99.90
25328;DHT22;13279;51.300;12.394;2023-07-13T09:01:16;25.30;99.90
25328;DHT22;13279;51.300;12.394;2023-07-13T09:03:51;25.50;99.90
25328;DHT22;13279;51.300;12.394;2023-07-13T09:06:23;25.50;99.80
25328;DHT22;13279;51.300;12.394;2023-07-13T09:08:59;25.40;99.90
25328;DHT22;13279;51.300;12.394;2023-07-13T09:11:42;25.40;99.60
25328;DHT22;13279;51.300;12.394;2023-07-13T09:14:34;25.70;99.50
25328;DHT22;13279;51.300;12.394;2023-07-13T09:17:10;26.00;98.50
25328;DHT22;13279;51.300;12.394;2023-07-13T09:19:40;25.70;98.80
25328;DHT22;13279;51.300;12.394;2023-07-13T09:22:13;25.10;98.90
25328;DHT22;13279;51.300;12.394;2023-07-13T09:24:54;24.80;99.10
25328;DHT22;13279;51.300;12.394;2023-07-13T09:27:24;24.50;99.40
25328;DHT22;13279;51.300;12.394;2023-07-13T09:30:01;24.40;99.60
25328;DHT22;13279;51.300;12.394;2023-07-13T09:32:31;24.30;99.40
25328;DHT22;13279;51.300;12.394;2023-07-13T09:35:00;24.10;99.10
25328;DHT22;13279;51.300;12.394;2023-07-13T09:37:31;24.00;99.50
25328;DHT22;13279;51.300;12.394;2023-07-13T09:40:01;24.40;99.90
25328;DHT22;13279;51.300;12.394;2023-07-13T09:42:31;25.00;99.50
25328;DHT22;13279;51.300;12.394;2023-07-13T09:45:01;25.10;99.20
25328;DHT22;13279;51.300;12.394;2023-07-13T09:47:32;25.50;98.50
25328;DHT22;13279;51.300;12.394;2023-07-13T09:50:07;25.80;98.20
25328;DHT22;13279;51.300;12.394;2023-07-13T09:52:41;25.90;97.90
25328;DHT22;13279;51.300;12.394;2023-07-13T09:55:24;25.80;97.30
25328;DHT22;13279;51.300;12.394;2023-07-13T09:57:52;26.20;98.70
25328;DHT22;13279;51.300;12.394;2023-07-13T10:00:22;26.30;97.10
25328;DHT22;13279;51.300;12.394;2023-07-13T10:03:01;26.10;96.90
25328;DHT22;13279;51.300;12.394;2023-07-13T10:05:38;25.70;97.40
25328;DHT22;13279;51.300;12.394;2023-07-13T10:08:09;25.40;97.60
25328;DHT22;13279;51.300;12.394;2023-07-13T10:10:42;25.20;97.70
25328;DHT22;13279;51.300;12.394;2023-07-13T10:13:24;24.90;97.60
25328;DHT22;13279;51.300;12.394;2023-07-13T10:15:53;24.90;98.00
25328;DHT22;13279;51.300;12.394;2023-07-13T10:18:23;24.80;98.90
25328;DHT22;13279;51.300;12.394;2023-07-13T10:20:54;24.90;98.60
25328;DHT22;13279;51.300;12.394;2023-07-13T10:23:28;25.00;98.30
25328;DHT22;13279;51.300;12.394;2023-07-13T10:25:59;24.50;98.40
25328;DHT22;13279;51.300;12.394;2023-07-13T10:28:31;24.80;98.90
25328;DHT22;13279;51.300;12.394;2023-07-13T10:31:01;25.10;98.20
25328;DHT22;13279;51.300;12.394;2023-07-13T10:33:32;25.00;97.90
25328;DHT22;13279;51.300;12.394;2023-07-13T10:36:05;25.30;98.00
25328;DHT22;13279;51.300;12.394;2023-07-13T10:38:37;25.60;97.20
25328;DHT22;13279;51.300;12.394;2023-07-13T10:41:07;26.20;97.80
25328;DHT22;13279;51.300;12.394;2023-07-13T10:43:39;26.80;97.30
25328;DHT22;13279;51.300;12.394;2023-07-13T10:46:13;27.40;97.80
25328;DHT22;13279;51.300;12.394;2023-07-13T10:48:44;27.50;96.80
25328;DHT22;13279;51.300;12.394;2023-07-13T10:51:18;27.10;95.80
25328;DHT22;13279;51.300;12.394;2023-07-13T10:53:48;26.90;96.10
25328;DHT22;13279;51.300;12.394;2023-07-13T10:56:35;26.90;95.70
25328;DHT22;13279;51.300;12.394;2023-07-13T10:59:11;27.00;95.70
25328;DHT22;13279;51.300;12.394;2023-07-13T11:01:49;26.40;94.90
25328;DHT22;13279;51.300;12.394;2023-07-13T11:04:19;26.00;95.90
25328;DHT22;13279;51.300;12.394;2023-07-13T11:06:50;26.10;95.10
25328;DHT22;13279;51.300;12.394;2023-07-13T11:09:36;26.10;95.00
25328;DHT22;13279;51.300;12.394;2023-07-13T11:15:12;26.10;94.80
25328;DHT22;13279;51.300;12.394;2023-07-13T11:17:50;26.20;94.10
25328;DHT22;13279;51.300;12.394;2023-07-13T11:20:34;26.10;93.40
25328;DHT22;13279;51.300;12.394;2023-07-13T11:23:27;26.20;93.90
25328;DHT22;13279;51.300;12.394;2023-07-13T11:25:56;26.40;92.70
25328;DHT22;13279;51.300;12.394;2023-07-13T11:28:29;26.90;93.60
25328;DHT22;13279;51.300;12.394;2023-07-13T11:31:03;27.10;93.60
25328;DHT22;13279;51.300;12.394;2023-07-13T11:33:50;26.70;92.00
25328;DHT22;13279;51.300;12.394;2023-07-13T11:36:21;25.90;92.60
25328;DHT22;13279;51.300;12.394;2023-07-13T11:38:58;25.60;93.20
25328;DHT22;13279;51.300;12.394;2023-07-13T11:41:32;25.50;93.30
25328;DHT22;13279;51.300;12.394;2023-07-13T11:44:12;25.40;92.70
25328;DHT22;13279;51.300;12.394;2023-07-13T11:46:45;25.30;92.90
25328;DHT22;13279;51.300;12.394;2023-07-13T11:49:16;25.50;92.00
25328;DHT22;13279;51.300;12.394;2023-07-13T11:51:46;25.70;92.40
25328;DHT22;13279;51.300;12.394;2023-07-13T11:54:24;25.80;92.50
25328;DHT22;13279;51.300;12.394;2023-07-13T11:56:55;25.80;91.60
25328;DHT22;13279;51.300;12.394;2023-07-13T11:59:27;25.80;91.40
25328;DHT22;13279;51.300;12.394;2023-07-13T12:01:57;25.90;91.70
25328;DHT22;13279;51.300;12.394;2023-07-13T12:04:26;26.00;91.10
25328;DHT22;13279;51.300;12.394;2023-07-13T12:07:04;26.40;91.30
25328;DHT22;13279;51.300;12.394;2023-07-13T12:09:33;26.60;90.20
25328;DHT22;13279;51.300;12.394;2023-07-13T12:12:03;26.70;90.90
25328;DHT22;13279;51.300;12.394;2023-07-13T12:14:34;27.20;90.20
25328;DHT22;13279;51.300;12.394;2023-07-13T12:17:09;27.50;88.90
25328;DHT22;13279;51.300;12.394;2023-07-13T12:19:38;27.70;90.00
25328;DHT22;13279;51.300;12.394;2023-07-13T12:22:12;28.10;87.50
25328;DHT22;13279;51.300;12.394;2023-07-13T12:24:40;28.30;89.30
25328;DHT22;13279;51.300;12.394;2023-07-13T12:27:19;28.20;86.10
25328;DHT22;13279;51.300;12.394;2023-07-13T12:29:51;28.20;84.70
25328;DHT22;13279;51.300;12.394;2023-07-13T12:32:21;28.30;84.00
25328;DHT22;13279;51.300;12.394;2023-07-13T12:34:54;28.20;84.60
25328;DHT22;13279;51.300;12.394;2023-07-13T12:37:24;28.20;83.00
25328;DHT22;13279;51.300;12.394;2023-07-13T12:39:51;27.60;82.40
25328;DHT22;13279;51.300;12.394;2023-07-13T12:42:22;27.60;81.60
25328;DHT22;13279;51.300;12.394;2023-07-13T12:44:54;27.70;82.30
25328;DHT22;13279;51.300;12.394;2023-07-13T12:47:24;27.80;81.20
25328;DHT22;13279;51.300;12.394;2023-07-13T12:49:54;27.80;80.80
25328;DHT22;13279;51.300;12.394;2023-07-13T12:52:27;27.80;80.00
25328;DHT22;13279;51.300;12.394;2023-07-13T12:54:58;28.20;80.50
25328;DHT22;13279;51.300;12.394;2023-07-13T12:57:26;28.30;82.00
25328;DHT22;13279;51.300;12.394;2023-07-13T12:59:55;28.30;79.90
25328;DHT22;13279;51.300;12.394;2023-07-13T13:02:30;28.50;79.80
25328;DHT22;13279;51.300;12.394;2023-07-13T13:04:58;28.50;80.60
25328;DHT22;13279;51.300;12.394;2023-07-13T13:07:27;28.20;80.10
25328;DHT22;13279;51.300;12.394;2023-07-13T13:09:55;28.10;80.60
25328;DHT22;13279;51.300;12.394;2023-07-13T13:12:23;27.90;79.80
25328;DHT22;13279;51.300;12.394;2023-07-13T13:14:52;27.60;81.10
25328;DHT22;13279;51.300;12.394;2023-07-13T13:17:21;27.90;79.60
25328;DHT22;13279;51.300;12.394;2023-07-13T13:19:51;28.30;79.60
25328;DHT22;13279;51.300;12.394;2023-07-13T13:22:20;28.20;78.90
25328;DHT22;13279;51.300;12.394;2023-07-13T13:24:49;28.00;77.10
25328;DHT22;13279;51.300;12.394;2023-07-13T13:27:18;27.90;79.00
25328;DHT22;13279;51.300;12.394;2023-07-13T13:29:46;28.40;80.80
25328;DHT22;13279;51.300;12.394;2023-07-13T13:32:15;28.60;76.40
25328;DHT22;13279;51.300;12.394;2023-07-13T13:34:43;28.20;77.10
25328;DHT22;13279;51.300;12.394;2023-07-13T13:37:17;28.10;76.60
25328;DHT22;13279;51.300;12.394;2023-07-13T13:39:46;28.00;76.70
25328;DHT22;13279;51.300;12.394;2023-07-13T13:42:15;27.60;75.80
25328;DHT22;13279;51.300;12.394;2023-07-13T13:44:43;27.00;77.10
25328;DHT22;13279;51.300;12.394;2023-07-13T13:47:26;26.80;77.30
25328;DHT22;13279;51.300;12.394;2023-07-13T13:49:55;26.70;78.70
25328;DHT22;13279;51.300;12.394;2023-07-13T13:52:23;26.80;78.70
25328;DHT22;13279;51.300;12.394;2023-07-13T13:54:50;27.60;79.20
25328;DHT22;13279;51.300;12.394;2023-07-13T13:57:24;28.20;77.80
25328;DHT22;13279;51.300;12.394;2023-07-13T13:59:51;28.30;76.30
25328;DHT22;13279;51.300;12.394;2023-07-13T14:02:25;28.50;76.80
25328;DHT22;13279;51.300;12.394;2023-07-13T14:04:55;28.40;77.10
25328;DHT22;13279;51.300;12.394;2023-07-13T14:07:24;28.30;77.20
25328;DHT22;13279;51.300;12.394;2023-07-13T14:09:52;28.20;78.80
25328;DHT22;13279;51.300;12.394;2023-07-13T14:12:20;28.20;78.10
25328;DHT22;13279;51.300;12.394;2023-07-13T14:14:49;27.90;77.80
25328;DHT22;13279;51.300;12.394;2023-07-13T14:17:20;27.70;77.80
25328;DHT22;13279;51.300;12.394;2023-07-13T14:19:50;27.80;76.60
25328;DHT22;13279;51.300;12.394;2023-07-13T14:22:23;27.80;77.80
25328;DHT22;13279;51.300;12.394;2023-07-13T14:24:52;27.90;77.40
25328;DHT22;13279;51.300;12.394;2023-07-13T14:27:20;28.10;78.40
25328;DHT22;13279;51.300;12.394;2023-07-13T14:29:48;28.90;77.80
25328;DHT22;13279;51.300;12.394;2023-07-13T14:32:16;29.20;78.10
25328;DHT22;13279;51.300;12.394;2023-07-13T14:34:43;29.50;77.00
25328;DHT22;13279;51.300;12.394;2023-07-13T14:37:13;29.80;74.40
25328;DHT22;13279;51.300;12.394;2023-07-13T14:39:43;30.10;75.70
25328;DHT22;13279;51.300;12.394;2023-07-13T14:42:11;29.50;74.00
25328;DHT22;13279;51.300;12.394;2023-07-13T14:44:39;29.10;75.30
25328;DHT22;13279;51.300;12.394;2023-07-13T14:47:08;29.10;74.80
25328;DHT22;13279;51.300;12.394;2023-07-13T14:49:39;29.20;74.20
25328;DHT22;13279;51.300;12.394;2023-07-13T14:52:11;29.60;72.40
25328;DHT22;13279;51.300;12.394;2023-07-13T14:54:39;29.30;72.50
25328;DHT22;13279;51.300;12.394;2023-07-13T14:57:10;28.20;73.20
25328;DHT22;13279;51.300;12.394;2023-07-13T14:59:38;27.50;72.30
25328;DHT22;13279;51.300;12.394;2023-07-13T15:02:16;27.50;73.20
25328;DHT22;13279;51.300;12.394;2023-07-13T15:04:44;28.20;72.60
25328;DHT22;13279;51.300;12.394;2023-07-13T15:07:12;28.40;72.90
25328;DHT22;13279;51.300;12.394;2023-07-13T15:09:41;28.20;73.50
25328;DHT22;13279;51.300;12.394;2023-07-13T15:12:09;28.40;74.20
25328;DHT22;13279;51.300;12.394;2023-07-13T15:14:37;28.80;75.10
25328;DHT22;13279;51.300;12.394;2023-07-13T15:17:05;28.80;72.90
25328;DHT22;13279;51.300;12.394;2023-07-13T15:19:35;28.10;72.90
25328;DHT22;13279;51.300;12.394;2023-07-13T15:22:03;27.70;73.10
25328;DHT22;13279;51.300;12.394;2023-07-13T15:24:32;27.60;73.00
25328;DHT22;13279;51.300;12.394;2023-07-13T15:27:00;27.60;73.70
25328;DHT22;13279;51.300;12.394;2023-07-13T15:29:27;28.10;72.60
25328;DHT22;13279;51.300;12.394;2023-07-13T15:31:54;28.20;73.20
25328;DHT22;13279;51.300;12.394;2023-07-13T15:34:25;28.20;72.50